Alabaster, Alabama
Current Conditions -  °F | °C
As of 11:53 AM on Sunday 25 Jan 2015 (Local Time) from KEET Reporting Station
Clear Clear  
Wind Chill: 14°   Ceiling: Unl
Heat Index: 14°   Visibility: 10mi
Dew Point:   Wind: 13mph
Humidity: 45%   Direction: 200°SSW
Pressure: 29.84"   Gusts: 18mph
Location:  33.25°N, 86.82°W
Report Text: KEET 251753Z AUTO 20011G16KT 10SM CLR 14/02 A2984 RMK AO2 SLP105 T01390022 10139 20017 58028
Loading
Personal Weather Stations






























Interactive Weather Map New forecast layout! Learn more

10-Day Weather Forecast

Advertisements
Track Severe Weather on mobile